createdAt,value
2023-04-06T00:01:17.757Z,39.05
2023-04-06T00:03:47.138Z,37.03
2023-04-06T00:06:17.161Z,34.75
2023-04-06T00:08:46.891Z,34.33
2023-04-06T00:11:16.242Z,33.47
2023-04-06T00:13:45.268Z,31.67
2023-04-06T00:16:14.424Z,32.53
2023-04-06T00:18:43.588Z,31.30
2023-04-06T00:21:16.338Z,30.50
2023-04-06T00:23:45.682Z,31.35
2023-04-06T00:26:14.598Z,32.00
2023-04-06T00:28:43.580Z,32.35
2023-04-06T00:31:12.626Z,30.67
2023-04-06T00:33:41.867Z,30.33
2023-04-06T00:36:11.033Z,30.13
2023-04-06T00:38:40.039Z,29.98
2023-04-06T00:41:09.008Z,29.27
2023-04-06T00:43:38.072Z,30.27
2023-04-06T00:46:07.585Z,30.08
2023-04-06T00:48:36.660Z,29.27
2023-04-06T00:51:05.823Z,30.90
2023-04-06T00:53:34.826Z,30.05
2023-04-06T00:56:03.873Z,29.15
2023-04-06T00:58:32.859Z,29.92
2023-04-06T01:01:02.178Z,30.50
2023-04-06T01:03:31.278Z,25.60
2023-04-06T01:06:00.444Z,29.38
2023-04-06T01:08:30.249Z,27.65
2023-04-06T01:10:59.400Z,25.98
2023-04-06T01:13:28.408Z,26.58
2023-04-06T01:15:57.917Z,25.73
2023-04-06T01:18:31.288Z,24.58
2023-04-06T01:21:01.672Z,25.85
2023-04-06T01:23:30.705Z,26.92
2023-04-06T01:25:59.659Z,26.35
2023-04-06T01:28:28.636Z,25.42
2023-04-06T01:30:57.620Z,26.10
2023-04-06T01:33:26.747Z,25.50
2023-04-06T01:35:55.738Z,26.00
2023-04-06T01:38:24.716Z,25.35
2023-04-06T01:40:53.772Z,28.80
2023-04-06T01:43:23.105Z,26.92
2023-04-06T01:45:52.485Z,28.35
2023-04-06T01:48:22.405Z,27.50
2023-04-06T01:50:51.448Z,26.45
2023-04-06T01:53:20.610Z,26.95
2023-04-06T01:55:49.619Z,27.05
2023-04-06T01:58:18.620Z,26.10
2023-04-06T02:00:47.732Z,28.48
2023-04-06T02:03:17.362Z,25.15
2023-04-06T02:05:46.488Z,26.30
2023-04-06T02:08:15.459Z,24.67
2023-04-06T02:10:44.452Z,26.02
2023-04-06T02:13:13.540Z,25.35
2023-04-06T02:15:42.545Z,27.92
2023-04-06T02:18:12.272Z,27.48
2023-04-06T02:20:41.252Z,26.45
2023-04-06T02:23:10.326Z,25.67
2023-04-06T02:25:39.276Z,25.90
2023-04-06T02:28:08.347Z,25.23
2023-04-06T02:30:37.720Z,26.52
2023-04-06T02:33:07.345Z,25.83
2023-04-06T02:35:36.544Z,26.95
2023-04-06T02:38:05.530Z,27.10
2023-04-06T02:40:34.472Z,26.35
2023-04-06T02:43:03.494Z,26.67
2023-04-06T02:45:32.440Z,25.02
2023-04-06T02:48:01.670Z,25.08
2023-04-06T02:50:30.722Z,24.13
2023-04-06T02:52:59.746Z,26.05
2023-04-06T02:55:28.766Z,24.60
2023-04-06T02:57:57.734Z,27.27
2023-04-06T03:00:26.790Z,25.30
2023-04-06T03:02:55.812Z,26.67
2023-04-06T03:05:24.946Z,27.63
2023-04-06T03:07:53.914Z,24.92
2023-04-06T03:10:23.001Z,26.92
2023-04-06T03:12:52.026Z,36.60
2023-04-06T03:15:23.900Z,26.35
2023-04-06T03:17:52.987Z,30.25
2023-04-06T03:20:21.959Z,32.70
2023-04-06T03:22:53.745Z,32.17
2023-04-06T03:25:22.799Z,32.78
2023-04-06T03:27:51.792Z,33.28
2023-04-06T03:30:20.794Z,35.25
2023-04-06T03:32:49.862Z,27.67
2023-04-06T03:35:19.005Z,24.05
2023-04-06T03:37:48.001Z,27.08
2023-04-06T03:40:17.069Z,25.88
2023-04-06T03:42:46.130Z,25.98
2023-04-06T03:45:18.375Z,26.45
2023-04-06T03:47:47.683Z,28.23
2023-04-06T03:50:17.011Z,26.40
2023-04-06T03:52:46.058Z,26.67
2023-04-06T03:55:15.226Z,24.73
2023-04-06T03:57:44.220Z,27.38
2023-04-06T04:00:14.141Z,26.08
2023-04-06T04:02:43.170Z,26.98
2023-04-06T04:05:12.416Z,26.80
2023-04-06T04:07:41.503Z,26.52
2023-04-06T04:10:10.940Z,25.02
2023-04-06T04:12:40.000Z,27.60
2023-04-06T04:15:09.417Z,27.92
2023-04-06T04:17:38.443Z,25.95
2023-04-06T04:20:08.122Z,28.08
2023-04-06T04:22:37.467Z,27.00
2023-04-06T04:25:06.588Z,26.52
2023-04-06T04:27:35.491Z,26.60
2023-04-06T04:30:04.686Z,26.90
2023-04-06T04:32:33.666Z,27.88
2023-04-06T04:35:03.006Z,27.55
2023-04-06T04:37:32.144Z,26.25
2023-04-06T04:40:01.181Z,29.00
2023-04-06T04:42:30.119Z,26.63
2023-04-06T04:44:59.132Z,28.10
2023-04-06T04:47:28.112Z,27.27
2023-04-06T04:50:00.834Z,27.75
2023-04-06T04:52:29.803Z,28.20
2023-04-06T04:54:58.930Z,27.55
2023-04-06T04:57:28.101Z,27.80
2023-04-06T04:59:58.023Z,28.25
2023-04-06T05:02:27.568Z,28.80
2023-04-06T05:04:57.246Z,28.95
2023-04-06T05:07:26.400Z,27.60
2023-04-06T05:09:55.937Z,28.98
2023-04-06T05:12:24.967Z,30.13
2023-04-06T05:14:53.956Z,29.30
2023-04-06T05:17:23.294Z,31.30
2023-04-06T05:19:52.361Z,30.52
2023-04-06T05:22:21.434Z,28.85
2023-04-06T05:24:50.509Z,29.67
2023-04-06T05:27:19.540Z,31.95
2023-04-06T05:29:48.737Z,30.65
2023-04-06T05:32:17.922Z,32.28
2023-04-06T05:34:46.921Z,32.60
2023-04-06T05:37:15.841Z,32.13
2023-04-06T05:39:44.840Z,32.13
2023-04-06T05:42:14.092Z,34.53
2023-04-06T05:44:43.100Z,34.42
2023-04-06T05:47:12.185Z,34.20
2023-04-06T05:49:41.270Z,35.75
2023-04-06T05:52:10.922Z,37.13
2023-04-06T05:54:40.165Z,37.20
2023-04-06T05:57:09.194Z,37.42
2023-04-06T05:59:38.283Z,36.63
2023-04-06T06:02:07.422Z,39.88
2023-04-06T06:04:36.960Z,38.55
2023-04-06T06:07:06.333Z,38.47
2023-04-06T06:09:35.267Z,37.97
2023-04-06T06:12:04.207Z,37.63
2023-04-06T06:14:33.360Z,37.60
2023-04-06T06:17:02.351Z,37.88
2023-04-06T06:19:31.341Z,40.10
2023-04-06T06:22:00.970Z,38.60
2023-04-06T06:24:31.559Z,39.85
2023-04-06T06:27:01.134Z,40.25
2023-04-06T06:29:30.388Z,38.78
2023-04-06T06:31:59.382Z,41.30
2023-04-06T06:34:28.394Z,41.92
2023-04-06T06:36:57.479Z,42.53
2023-04-06T06:39:27.165Z,43.30
2023-04-06T06:41:59.436Z,42.53
2023-04-06T06:44:28.739Z,42.53
2023-04-06T06:46:57.759Z,41.22
2023-04-06T06:49:26.824Z,42.10
2023-04-06T06:52:01.619Z,39.30
2023-04-06T06:54:30.668Z,42.78
2023-04-06T06:56:59.846Z,44.15
2023-04-06T06:59:29.158Z,42.95
2023-04-06T07:01:58.530Z,40.30
2023-04-06T07:04:27.522Z,38.47
2023-04-06T07:06:56.612Z,37.63
2023-04-06T07:09:25.677Z,38.17
2023-04-06T07:11:54.650Z,38.05
2023-04-06T07:14:23.652Z,39.03
2023-04-06T07:16:53.254Z,41.45
2023-04-06T07:19:22.395Z,38.40
2023-04-06T07:21:54.486Z,38.70
2023-04-06T07:24:23.524Z,38.22
2023-04-06T07:26:54.347Z,40.30
2023-04-06T07:29:23.579Z,41.20
2023-04-06T07:31:53.378Z,41.13
2023-04-06T07:34:22.448Z,41.08
2023-04-06T07:36:51.494Z,41.75
2023-04-06T07:39:20.484Z,42.50
2023-04-06T07:41:49.480Z,41.97
2023-04-06T07:44:18.665Z,40.45
2023-04-06T07:46:47.945Z,43.92
2023-04-06T07:49:16.941Z,44.00
2023-04-06T07:51:45.938Z,41.50
2023-04-06T07:54:14.962Z,47.83
2023-04-06T07:56:43.983Z,46.58
2023-04-06T07:59:13.573Z,48.83
2023-04-06T08:01:42.680Z,51.40
2023-04-06T08:04:12.745Z,53.75
2023-04-06T08:06:43.161Z,52.35
2023-04-06T08:09:12.361Z,54.45
2023-04-06T08:11:41.405Z,52.10
2023-04-06T08:14:10.896Z,49.58
2023-04-06T08:16:40.025Z,50.72
2023-04-06T08:19:11.462Z,50.10
2023-04-06T08:21:42.171Z,46.25
2023-04-06T08:24:11.189Z,45.83
2023-04-06T08:26:40.177Z,47.55
2023-04-06T08:29:12.292Z,47.63
2023-04-06T08:31:41.387Z,48.40
2023-04-06T08:34:13.089Z,46.95
2023-04-06T08:36:43.688Z,43.67
2023-04-06T08:39:12.674Z,41.78
2023-04-06T08:41:44.911Z,43.50
2023-04-06T08:44:14.286Z,45.97
2023-04-06T08:46:43.373Z,41.22
2023-04-06T08:49:12.670Z,41.47
2023-04-06T08:51:43.779Z,42.22
2023-04-06T08:54:13.270Z,41.80
2023-04-06T08:56:42.577Z,41.22
2023-04-06T08:59:13.133Z,37.70
2023-04-06T09:01:47.821Z,35.58
2023-04-06T09:04:17.935Z,37.25
2023-04-06T09:06:47.345Z,39.83
2023-04-06T09:09:16.736Z,38.38
2023-04-06T09:11:52.922Z,36.35
2023-04-06T09:14:42.772Z,32.83
2023-04-06T09:17:21.853Z,35.45
2023-04-06T09:19:51.916Z,30.50
2023-04-06T09:22:21.634Z,32.28
2023-04-06T09:24:58.132Z,30.58
2023-04-06T09:27:38.341Z,30.40
2023-04-06T09:30:16.945Z,29.90
2023-04-06T09:33:01.381Z,30.77
2023-04-06T09:35:32.236Z,31.77
2023-04-06T09:38:01.312Z,30.63
2023-04-06T09:40:31.319Z,29.60
2023-04-06T09:43:01.606Z,29.90
2023-04-06T09:45:33.115Z,28.85
2023-04-06T09:48:03.351Z,27.25
2023-04-06T09:50:33.046Z,26.20
2023-04-06T09:53:03.029Z,26.05
2023-04-06T09:55:44.646Z,26.70
2023-04-06T09:58:20.497Z,26.25
2023-04-06T10:01:18.661Z,25.42
2023-04-06T10:04:07.221Z,25.25
2023-04-06T10:06:37.661Z,24.10
2023-04-06T10:09:10.368Z,23.90
2023-04-06T10:11:39.608Z,22.88
2023-04-06T10:14:08.853Z,24.38
2023-04-06T10:16:38.530Z,23.77
2023-04-06T10:19:17.415Z,23.52
2023-04-06T10:21:51.204Z,23.10
2023-04-06T10:24:20.321Z,24.55
2023-04-06T10:27:18.544Z,25.60
2023-04-06T10:29:53.284Z,26.55
2023-04-06T10:32:22.344Z,25.17
2023-04-06T10:34:51.769Z,26.00
2023-04-06T10:37:22.759Z,26.63
2023-04-06T10:40:00.806Z,25.48
2023-04-06T10:42:40.721Z,27.83
2023-04-06T10:45:21.383Z,26.83
2023-04-06T10:47:50.526Z,28.00
2023-04-06T10:50:19.996Z,27.35
2023-04-06T10:52:49.430Z,27.48
2023-04-06T10:55:19.203Z,26.33
2023-04-06T10:57:49.790Z,27.85
2023-04-06T11:00:19.258Z,28.52
2023-04-06T11:02:48.443Z,29.90
2023-04-06T11:05:17.833Z,29.13
2023-04-06T11:07:47.318Z,29.65
2023-04-06T11:10:25.241Z,29.75
2023-04-06T11:12:58.024Z,32.38
2023-04-06T11:15:27.286Z,31.77
2023-04-06T11:17:56.530Z,31.55
2023-04-06T11:20:25.582Z,31.20
2023-04-06T11:22:54.982Z,32.00
2023-04-06T11:25:24.511Z,31.90
2023-04-06T11:27:54.205Z,31.67
2023-04-06T11:30:23.384Z,29.13
2023-04-06T11:32:52.583Z,28.38
2023-04-06T11:35:26.270Z,27.77
2023-04-06T11:37:55.534Z,27.33
2023-04-06T11:40:26.923Z,27.35
2023-04-06T11:42:57.077Z,26.92
2023-04-06T11:45:26.282Z,24.35
2023-04-06T11:48:04.020Z,24.73
2023-04-06T11:50:37.110Z,24.77
2023-04-06T11:53:06.193Z,23.98
2023-04-06T11:55:41.188Z,25.65
2023-04-06T11:58:10.371Z,25.45
2023-04-06T12:00:39.374Z,26.75
2023-04-06T12:03:08.670Z,25.10
2023-04-06T12:05:37.953Z,26.50
2023-04-06T12:08:07.325Z,28.73
2023-04-06T12:10:36.598Z,27.55
2023-04-06T12:13:06.758Z,26.15
2023-04-06T12:15:35.832Z,25.65
2023-04-06T12:18:05.097Z,26.42
2023-04-06T12:20:34.661Z,24.25
2023-04-06T12:23:03.895Z,28.08
2023-04-06T12:25:33.112Z,27.83
2023-04-06T12:28:02.744Z,30.83
2023-04-06T12:30:32.376Z,28.33
2023-04-06T12:33:02.099Z,29.88
2023-04-06T12:35:31.357Z,29.63
2023-04-06T12:38:00.329Z,26.85
2023-04-06T12:40:29.499Z,26.45
2023-04-06T12:42:58.553Z,24.42
2023-04-06T12:45:27.541Z,22.98
2023-04-06T12:47:56.601Z,25.40
2023-04-06T12:50:25.614Z,24.63
2023-04-06T12:52:54.818Z,25.48
2023-04-06T12:55:23.826Z,26.83
2023-04-06T12:57:53.090Z,25.17
2023-04-06T13:00:22.956Z,26.45
2023-04-06T13:02:52.211Z,25.02
2023-04-06T13:05:21.311Z,25.55
2023-04-06T13:07:50.384Z,26.00
2023-04-06T13:10:19.449Z,25.30
2023-04-06T13:12:48.538Z,25.50
2023-04-06T13:15:18.166Z,26.27
2023-04-06T13:17:47.320Z,26.50
2023-04-06T13:20:16.690Z,26.40
2023-04-06T13:22:45.753Z,27.45
2023-04-06T13:25:14.742Z,28.42
2023-04-06T13:27:46.094Z,27.45
2023-04-06T13:30:16.491Z,26.10
2023-04-06T13:32:46.889Z,27.02
2023-04-06T13:35:16.806Z,27.55
2023-04-06T13:37:46.002Z,29.05
2023-04-06T13:40:17.974Z,28.40
2023-04-06T13:42:48.478Z,28.90
2023-04-06T13:45:17.675Z,30.83
2023-04-06T13:47:46.704Z,33.33
2023-04-06T13:50:15.778Z,32.45
2023-04-06T13:52:45.097Z,32.75
2023-04-06T13:55:14.175Z,34.78
2023-04-06T13:57:43.718Z,37.47
2023-04-06T14:00:15.039Z,36.15
2023-04-06T14:02:44.238Z,34.53
2023-04-06T14:05:13.557Z,33.40
2023-04-06T14:07:42.717Z,32.85
2023-04-06T14:10:15.948Z,34.45
2023-04-06T14:12:48.313Z,31.95
2023-04-06T14:15:17.595Z,34.70
2023-04-06T14:17:46.848Z,31.08
2023-04-06T14:20:17.387Z,32.35
2023-04-06T14:22:46.471Z,31.30
2023-04-06T14:25:15.441Z,32.00
2023-04-06T14:27:46.148Z,30.33
2023-04-06T14:30:15.779Z,30.52
2023-04-06T14:32:44.842Z,30.35
2023-04-06T14:35:14.282Z,30.95
2023-04-06T14:37:43.358Z,31.23
2023-04-06T14:40:13.171Z,30.52
2023-04-06T14:42:42.289Z,30.83
2023-04-06T14:45:11.570Z,29.58
2023-04-06T14:47:40.718Z,31.50
2023-04-06T14:50:10.237Z,29.40
2023-04-06T14:52:39.799Z,30.13
2023-04-06T14:55:09.108Z,32.65
2023-04-06T14:57:38.197Z,31.20
2023-04-06T15:00:10.151Z,31.15
2023-04-06T15:02:39.974Z,31.80
2023-04-06T15:05:09.411Z,30.45
2023-04-06T15:07:44.379Z,31.60
2023-04-06T15:10:14.339Z,31.02
2023-04-06T15:12:43.348Z,30.20
2023-04-06T15:15:12.913Z,28.63
2023-04-06T15:17:41.995Z,31.75
2023-04-06T15:20:11.478Z,33.15
2023-04-06T15:22:40.454Z,33.03
2023-04-06T15:25:09.857Z,36.08
2023-04-06T15:27:38.868Z,34.20
2023-04-06T15:30:08.326Z,34.97
2023-04-06T15:32:37.361Z,32.00
2023-04-06T15:35:13.750Z,34.67
2023-04-06T15:37:43.118Z,36.13
2023-04-06T15:40:15.478Z,38.22
2023-04-06T15:42:45.326Z,33.38
2023-04-06T15:45:14.732Z,31.63
2023-04-06T15:47:45.649Z,32.42
2023-04-06T15:50:15.710Z,30.80
2023-04-06T15:52:44.870Z,31.27
2023-04-06T15:55:13.909Z,31.65
2023-04-06T15:57:43.078Z,30.13
2023-04-06T16:00:12.753Z,31.65
2023-04-06T16:02:42.187Z,32.10
2023-04-06T16:05:11.470Z,29.88
2023-04-06T16:07:40.456Z,29.80
2023-04-06T16:10:10.218Z,31.30
2023-04-06T16:12:39.482Z,31.38
2023-04-06T16:15:09.237Z,30.38
2023-04-06T16:17:38.467Z,30.95
2023-04-06T16:20:08.175Z,31.52
2023-04-06T16:22:37.863Z,32.88
2023-04-06T16:25:07.097Z,31.83
2023-04-06T16:27:36.055Z,32.08
2023-04-06T16:30:06.067Z,33.35
2023-04-06T16:32:35.075Z,32.05
2023-04-06T16:35:05.961Z,31.25
2023-04-06T16:37:35.188Z,32.25
2023-04-06T16:40:04.722Z,31.77
2023-04-06T16:42:33.778Z,31.58
2023-04-06T16:45:03.042Z,30.98
2023-04-06T16:47:32.053Z,33.90
2023-04-06T16:50:05.484Z,34.20
2023-04-06T16:52:36.125Z,32.38
2023-04-06T16:55:05.380Z,33.47
2023-04-06T16:57:35.146Z,34.95
2023-04-06T17:00:06.711Z,34.67
2023-04-06T17:02:37.557Z,37.13
2023-04-06T17:05:06.915Z,39.90
2023-04-06T17:07:37.338Z,42.53
2023-04-06T17:10:08.100Z,43.45
2023-04-06T17:12:37.785Z,42.30
2023-04-06T17:15:07.203Z,44.28
2023-04-06T17:17:36.249Z,43.50
2023-04-06T17:20:05.409Z,42.42
2023-04-06T17:22:34.489Z,43.00
2023-04-06T17:25:03.929Z,44.30
2023-04-06T17:27:33.084Z,42.35
2023-04-06T17:30:07.504Z,44.38
2023-04-06T17:32:36.923Z,46.25
2023-04-06T17:35:06.238Z,49.35
2023-04-06T17:37:35.422Z,50.80
2023-04-06T17:40:04.561Z,55.28
2023-04-06T17:42:33.858Z,53.10
2023-04-06T17:45:02.844Z,52.90
2023-04-06T17:47:33.486Z,56.00
2023-04-06T17:50:03.468Z,51.90
2023-04-06T17:52:33.030Z,51.70
2023-04-06T17:55:02.092Z,54.53
2023-04-06T17:57:31.103Z,53.72
2023-04-06T18:00:00.192Z,51.63
2023-04-06T18:02:29.294Z,51.17
2023-04-06T18:04:58.396Z,49.45
2023-04-06T18:07:27.399Z,51.53
2023-04-06T18:09:56.896Z,48.25
2023-04-06T18:12:25.829Z,49.95
2023-04-06T18:14:54.853Z,49.20
2023-04-06T18:17:23.935Z,49.30
2023-04-06T18:19:53.011Z,49.75
2023-04-06T18:22:22.375Z,50.58
2023-04-06T18:24:51.323Z,51.60
2023-04-06T18:27:22.721Z,54.67
2023-04-06T18:29:51.775Z,52.67
2023-04-06T18:32:20.822Z,52.42
2023-04-06T18:34:49.743Z,53.17
2023-04-06T18:37:18.969Z,54.28
2023-04-06T18:39:48.258Z,53.72
2023-04-06T18:42:17.436Z,49.65
2023-04-06T18:44:46.934Z,51.38
2023-04-06T18:47:15.951Z,49.33
2023-04-06T18:49:45.061Z,48.85
2023-04-06T18:52:13.946Z,49.72
2023-04-06T18:54:43.686Z,50.28
2023-04-06T18:57:12.734Z,48.63
2023-04-06T18:59:42.010Z,47.17
2023-04-06T19:02:11.083Z,48.28
2023-04-06T19:04:40.157Z,47.92
2023-04-06T19:07:09.253Z,46.90
2023-04-06T19:09:38.292Z,46.75
2023-04-06T19:12:07.317Z,47.17
2023-04-06T19:14:36.353Z,43.35
2023-04-06T19:17:05.567Z,42.67
2023-04-06T19:19:34.577Z,41.60
2023-04-06T19:22:03.584Z,44.25
2023-04-06T19:24:32.580Z,42.47
2023-04-06T19:27:01.566Z,42.42
2023-04-06T19:29:30.742Z,41.03
2023-04-06T19:32:00.922Z,38.60
2023-04-06T19:34:30.072Z,42.78
2023-04-06T19:36:59.070Z,43.17
2023-04-06T19:39:28.377Z,42.85
2023-04-06T19:41:58.390Z,41.28
2023-04-06T19:44:27.528Z,43.05
2023-04-06T19:46:57.041Z,42.08
2023-04-06T19:49:29.414Z,43.67
2023-04-06T19:51:58.619Z,43.33
2023-04-06T19:54:27.685Z,41.85
2023-04-06T19:56:57.375Z,43.20
2023-04-06T19:59:26.351Z,40.33
2023-04-06T20:01:55.610Z,41.55
2023-04-06T20:04:26.547Z,43.95
2023-04-06T20:06:55.774Z,43.45
2023-04-06T20:09:25.597Z,39.83
2023-04-06T20:11:55.482Z,41.38
2023-04-06T20:14:24.616Z,40.88
2023-04-06T20:16:54.684Z,42.55
2023-04-06T20:19:23.920Z,42.08
2023-04-06T20:21:52.861Z,44.78
2023-04-06T20:24:22.039Z,50.03
2023-04-06T20:26:52.232Z,45.42
2023-04-06T20:29:21.595Z,44.63
2023-04-06T20:31:50.677Z,45.22
2023-04-06T20:34:20.256Z,43.78
2023-04-06T20:36:49.475Z,42.85
2023-04-06T20:39:18.468Z,43.17
2023-04-06T20:41:48.027Z,43.30
2023-04-06T20:44:17.516Z,45.00
2023-04-06T20:46:47.020Z,43.45
2023-04-06T20:49:16.281Z,45.13
2023-04-06T20:51:46.742Z,41.03
2023-04-06T20:54:15.947Z,41.92
2023-04-06T20:56:45.452Z,42.20
2023-04-06T20:59:14.475Z,42.05
2023-04-06T21:01:44.625Z,42.80
2023-04-06T21:04:13.728Z,42.22
2023-04-06T21:06:42.821Z,40.63
2023-04-06T21:09:11.878Z,43.80
2023-04-06T21:11:40.864Z,42.85
2023-04-06T21:14:09.856Z,44.10
2023-04-06T21:16:38.869Z,46.47
2023-04-06T21:19:08.134Z,42.60
2023-04-06T21:21:37.602Z,41.70
2023-04-06T21:24:06.879Z,40.10
2023-04-06T21:26:36.562Z,41.50
2023-04-06T21:29:05.561Z,41.80
2023-04-06T21:31:36.041Z,40.38
2023-04-06T21:34:05.070Z,42.55
2023-04-06T21:36:35.510Z,41.58
2023-04-06T21:39:04.669Z,41.63
2023-04-06T21:41:34.415Z,39.90
2023-04-06T21:44:04.258Z,41.05
2023-04-06T21:46:34.063Z,39.90
2023-04-06T21:49:03.121Z,41.05
2023-04-06T21:51:33.009Z,41.72
2023-04-06T21:54:03.065Z,41.25
2023-04-06T21:56:32.107Z,43.33
2023-04-06T21:59:01.565Z,43.15
2023-04-06T22:01:30.690Z,43.95
2023-04-06T22:04:00.029Z,43.13
2023-04-06T22:06:31.123Z,42.88
2023-04-06T22:09:01.592Z,41.83
2023-04-06T22:11:30.637Z,40.85
2023-04-06T22:13:59.550Z,41.80
2023-04-06T22:16:29.007Z,40.10
2023-04-06T22:18:57.987Z,41.45
2023-04-06T22:21:27.761Z,42.25
2023-04-06T22:23:56.720Z,40.60
2023-04-06T22:26:25.720Z,42.10
2023-04-06T22:28:54.740Z,42.30
2023-04-06T22:31:23.826Z,42.13
2023-04-06T22:33:52.841Z,42.28
2023-04-06T22:36:22.057Z,45.58
2023-04-06T22:38:52.042Z,49.10
2023-04-06T22:41:21.114Z,50.00
2023-04-06T22:43:50.129Z,50.40
2023-04-06T22:46:19.037Z,50.70
2023-04-06T22:48:48.045Z,45.33
2023-04-06T22:51:17.339Z,46.97
2023-04-06T22:53:46.515Z,45.13
2023-04-06T22:56:15.469Z,44.72
2023-04-06T22:58:44.388Z,49.22
2023-04-06T23:01:13.448Z,46.95
2023-04-06T23:03:42.743Z,45.63
2023-04-06T23:06:11.813Z,45.25
2023-04-06T23:08:40.796Z,48.13
2023-04-06T23:11:09.759Z,47.88
2023-04-06T23:13:38.720Z,48.25
2023-04-06T23:16:09.483Z,54.88
2023-04-06T23:18:38.459Z,53.75
2023-04-06T23:21:10.574Z,52.05
2023-04-06T23:23:39.658Z,48.17
2023-04-06T23:26:08.710Z,49.95
2023-04-06T23:28:38.036Z,50.53
2023-04-06T23:31:07.453Z,53.72
2023-04-06T23:33:36.619Z,55.25
2023-04-06T23:36:05.760Z,52.33
2023-04-06T23:38:37.790Z,50.30
2023-04-06T23:41:07.310Z,49.50
2023-04-06T23:43:36.361Z,48.75
2023-04-06T23:46:05.323Z,50.80
2023-04-06T23:48:34.412Z,53.10
2023-04-06T23:51:03.657Z,52.33
2023-04-06T23:53:32.627Z,52.90
2023-04-06T23:56:01.824Z,53.78
2023-04-06T23:58:30.845Z,53.00
